Time;durP1;ratioP1;P1;durP2;ratioP2;P2;SDS_P1;SDS_P2;PMS_P1;PMS_P2;Temp;Humidity;BMP_temperature;BMP_pressure;BME280_temperature;BME280_humidity;BME280_pressure;Samples;Min_cycle;Max_cycle;Signal;HPM_P1;HPM_P2
2022/03/12 00:01:44;;;;;;;31.30;15.70;;;;;;;-1.10;35.86;101811.22;5070908;28;20127;-77
2022/03/12 00:04:12;;;;;;;37.42;19.27;;;;;;;-1.13;36.17;101811.25;5072735;28;20049;-71
2022/03/12 00:06:40;;;;;;;33.88;17.55;;;;;;;-1.16;36.10;101811.22;5069847;28;20051;-76
2022/03/12 00:09:07;;;;;;;29.85;17.20;;;;;;;-1.17;36.24;101818.16;5068215;28;20147;-71
2022/03/12 00:11:40;;;;;;;44.60;19.25;;;;;;;-1.16;36.13;101816.41;5066262;28;20044;-71
2022/03/12 00:14:07;;;;;;;47.75;18.33;;;;;;;-1.20;36.36;101818.13;5065006;28;20591;-77
2022/03/12 00:16:34;;;;;;;40.95;15.68;;;;;;;-1.24;36.08;101820.72;5064966;28;20103;-72
2022/03/12 00:19:07;;;;;;;48.80;18.30;;;;;;;-1.32;36.16;101815.53;5065265;28;20418;-70
2022/03/12 00:21:35;;;;;;;40.97;17.65;;;;;;;-1.39;36.44;101808.59;5064615;28;20642;-72
2022/03/12 00:24:03;;;;;;;35.63;17.73;;;;;;;-1.42;36.62;101812.06;5063669;28;20511;-72
2022/03/12 00:26:31;;;;;;;41.85;16.85;;;;;;;-1.46;36.52;101810.34;5065624;28;20131;-73
2022/03/12 00:29:00;;;;;;;42.97;16.42;;;;;;;-1.45;36.78;101812.03;5063623;28;20052;-73
2022/03/12 00:31:27;;;;;;;43.75;18.17;;;;;;;-1.43;36.52;101818.09;5063346;28;20542;-73
2022/03/12 00:33:55;;;;;;;38.80;17.85;;;;;;;-1.45;36.46;101819.81;5064154;28;20052;-73
2022/03/12 00:36:22;;;;;;;47.47;23.13;;;;;;;-1.46;36.66;101814.63;5065249;28;20127;-72
2022/03/12 00:38:49;;;;;;;42.58;21.20;;;;;;;-1.52;37.00;101815.47;5064777;28;20058;-73
2022/03/12 00:41:17;;;;;;;43.83;19.98;;;;;;;-1.56;37.04;101809.44;5066526;28;20112;-73
2022/03/12 00:43:44;;;;;;;54.85;19.70;;;;;;;-1.51;36.86;101804.28;5065701;28;20052;-72
2022/03/12 00:46:12;;;;;;;43.20;21.67;;;;;;;-1.56;37.11;101806.84;5067375;28;20748;-69
2022/03/12 00:48:40;;;;;;;52.28;21.98;;;;;;;-1.61;37.65;101799.91;5065759;28;20055;-72
2022/03/12 00:51:08;;;;;;;48.22;25.88;;;;;;;-1.63;37.51;101809.41;5066167;28;20064;-73
2022/03/12 00:53:36;;;;;;;47.25;20.10;;;;;;;-1.64;37.90;101802.50;5064467;28;20133;-72
2022/03/12 00:56:03;;;;;;;44.90;20.45;;;;;;;-1.66;37.71;101799.03;5064065;28;20652;-71
2022/03/12 00:58:30;;;;;;;37.92;17.70;;;;;;;-1.64;37.70;101805.09;5065583;28;20119;-71
2022/03/12 01:00:58;;;;;;;42.05;21.90;;;;;;;-1.65;38.12;101799.03;5065923;28;20139;-72
2022/03/12 01:03:26;;;;;;;36.22;17.33;;;;;;;-1.65;37.97;101795.59;5067689;28;20440;-70
2022/03/12 01:05:57;;;;;;;45.10;18.55;;;;;;;-1.64;37.64;101798.19;5065561;28;20132;-71
2022/03/12 01:08:27;;;;;;;44.45;17.33;;;;;;;-1.68;37.66;101793.84;5067065;28;20191;-75
2022/03/12 01:10:56;;;;;;;35.47;16.58;;;;;;;-1.68;37.83;101800.75;5065960;28;20597;-76
2022/03/12 01:13:25;;;;;;;33.28;17.00;;;;;;;-1.67;37.89;101794.72;5065480;28;20062;-70
2022/03/12 01:15:52;;;;;;;39.65;19.13;;;;;;;-1.66;37.80;101794.72;5064208;28;20041;-73
2022/03/12 01:18:21;;;;;;;39.55;17.63;;;;;;;-1.65;37.52;101793.00;5064960;28;20048;-71
2022/03/12 01:20:50;;;;;;;32.28;16.17;;;;;;;-1.66;37.79;101794.72;5065126;28;20131;-71
2022/03/12 01:23:19;;;;;;;43.25;18.23;;;;;;;-1.65;37.59;101795.59;5064792;28;20115;-73
2022/03/12 01:25:48;;;;;;;35.08;17.55;;;;;;;-1.65;37.51;101791.28;5064984;28;20048;-73
2022/03/12 01:28:16;;;;;;;31.73;16.15;;;;;;;-1.67;37.75;101792.16;5066961;28;20128;-71
2022/03/12 01:30:46;;;;;;;30.83;17.58;;;;;;;-1.66;37.65;101791.25;5069843;28;20041;-70
2022/03/12 01:33:13;;;;;;;41.78;18.25;;;;;;;-1.66;37.51;101788.69;5073012;28;20045;-72
2022/03/12 01:35:40;;;;;;;33.85;14.05;;;;;;;-1.65;37.58;101785.22;5069127;28;20044;-71
2022/03/12 01:38:08;;;;;;;33.72;17.42;;;;;;;-1.67;37.54;101795.59;5077240;28;20103;-69
2022/03/12 01:40:36;;;;;;;33.78;15.65;;;;;;;-1.66;37.81;101784.34;5077279;28;20271;-71
2022/03/12 01:43:04;;;;;;;33.22;15.27;;;;;;;-1.65;37.63;101782.66;5081429;28;20095;-69
2022/03/12 01:45:31;;;;;;;38.72;16.20;;;;;;;-1.63;37.47;101781.78;5082193;28;20125;-70
2022/03/12 01:48:00;;;;;;;35.15;16.13;;;;;;;-1.61;37.44;101779.19;5079865;28;20662;-70
2022/03/12 01:50:30;;;;;;;33.50;17.02;;;;;;;-1.60;37.83;101783.53;5082951;28;20083;-74
2022/03/12 01:53:02;;;;;;;31.02;15.30;;;;;;;-1.60;37.60;101784.38;5078894;28;20056;-74
2022/03/12 01:55:31;;;;;;;38.90;16.00;;;;;;;-1.60;37.75;101780.94;5072658;28;20055;-69
2022/03/12 01:58:00;;;;;;;30.45;14.68;;;;;;;-1.59;37.68;101772.28;5077597;28;20044;-77
2022/03/12 02:00:28;;;;;;;32.60;14.70;;;;;;;-1.59;37.66;101774.88;5078296;28;20404;-71
2022/03/12 02:02:56;;;;;;;28.20;14.25;;;;;;;-1.60;37.48;101774.03;5077444;28;20140;-71
2022/03/12 02:05:27;;;;;;;28.75;14.43;;;;;;;-1.59;37.62;101772.28;5080066;28;20163;-73
2022/03/12 02:07:59;;;;;;;32.15;15.95;;;;;;;-1.59;37.64;101774.88;5075864;28;20123;-71
2022/03/12 02:10:26;;;;;;;31.20;14.50;;;;;;;-1.60;37.41;101767.97;5073248;28;20488;-70
2022/03/12 02:12:55;;;;;;;30.85;14.75;;;;;;;-1.59;37.43;101764.50;5068306;28;20055;-75
2022/03/12 02:15:23;;;;;;;33.88;15.63;;;;;;;-1.59;37.46;101764.50;5069589;28;20051;-76
2022/03/12 02:17:51;;;;;;;33.85;14.02;;;;;;;-1.60;37.35;101767.97;5069080;28;20127;-73
2022/03/12 02:20:20;;;;;;;23.73;12.93;;;;;;;-1.61;37.37;101761.06;5069433;28;20055;-70
2022/03/12 02:22:53;;;;;;;28.63;13.20;;;;;;;-1.62;37.55;101756.72;5069851;28;20135;-70
2022/03/12 02:25:28;;;;;;;31.73;14.27;;;;;;;-1.64;37.40;101755.84;5070083;28;20496;-74
2022/03/12 02:27:55;;;;;;;;;;;;;;;-1.47;37.49;101761.94;5073062;28;20049;-81
2022/03/12 02:30:26;;;;;;;27.92;12.32;;;;;;;-1.64;37.22;101754.16;5069252;28;19955;-69
2022/03/12 02:32:58;;;;;;;24.33;13.13;;;;;;;-1.71;37.66;101755.00;5068749;28;20051;-73
2022/03/12 02:35:26;;;;;;;38.63;14.23;;;;;;;-1.75;37.63;101748.94;5068153;28;20044;-70
2022/03/12 02:37:54;;;;;;;29.50;14.60;;;;;;;-1.80;37.70;101749.78;5068396;28;20508;-71
2022/03/12 02:40:21;;;;;;;35.17;15.45;;;;;;;-1.84;37.68;101753.22;5067547;28;20552;-73
2022/03/12 02:42:51;;;;;;;24.77;10.77;;;;;;;-1.83;37.96;101750.63;5067228;28;20443;-72
2022/03/12 02:45:23;;;;;;;27.00;13.43;;;;;;;-1.83;37.76;101753.22;5066813;28;20132;-74
2022/03/12 02:47:50;;;;;;;29.67;10.90;;;;;;;-1.82;37.90;101752.38;5067672;28;20051;-75
2022/03/12 02:50:18;;;;;;;28.45;11.43;;;;;;;-1.83;37.51;101750.63;5067778;28;20110;-71
2022/03/12 02:52:46;;;;;;;20.67;11.35;;;;;;;-1.81;37.66;101758.41;5065342;28;20040;-71
2022/03/12 02:55:16;;;;;;;21.45;10.60;;;;;;;-1.82;37.92;101748.91;5064060;28;20055;-70
2022/03/12 02:57:46;;;;;;;26.80;11.40;;;;;;;-1.83;38.02;101757.56;5067269;28;20047;-72
2022/03/12 03:00:16;;;;;;;33.08;13.48;;;;;;;-1.84;38.01;101754.06;5066277;28;20040;-72
2022/03/12 03:02:52;;;;;;;23.00;11.73;;;;;;;-1.85;37.64;101764.47;5067173;28;20056;-72
2022/03/12 03:05:33;;;;;;;27.85;13.07;;;;;;;-1.87;37.99;101754.09;5066679;28;20650;-72
2022/03/12 03:08:03;;;;;;;28.35;16.02;;;;;;;-1.84;37.88;101763.59;5068021;28;20511;-73
2022/03/12 03:10:33;;;;;;;31.35;14.20;;;;;;;-1.90;37.91;101753.22;5067014;28;20049;-71
2022/03/12 03:13:05;;;;;;;34.38;15.05;;;;;;;-1.91;38.00;101754.91;5067351;28;20048;-70
2022/03/12 03:15:36;;;;;;;37.38;16.13;;;;;;;-1.94;38.42;101747.16;5068276;28;20056;-70
2022/03/12 03:18:08;;;;;;;28.50;13.68;;;;;;;-1.95;38.37;101748.88;5068918;28;20587;-72
2022/03/12 03:20:35;;;;;;;34.92;15.35;;;;;;;-1.94;38.29;101744.56;5070186;28;20084;-72
2022/03/12 03:23:02;;;;;;;35.45;13.13;;;;;;;-1.96;38.29;101743.72;5070172;28;20044;-70
2022/03/12 03:25:29;;;;;;;40.90;15.05;;;;;;;-1.96;38.32;101743.72;5066106;28;20044;-76
2022/03/12 03:27:56;;;;;;;29.90;13.18;;;;;;;-2.00;38.59;101741.94;5068029;28;20619;-73
2022/03/12 03:30:23;;;;;;;33.95;14.07;;;;;;;-2.02;38.49;101743.66;5069412;28;20175;-72
2022/03/12 03:32:52;;;;;;;37.28;14.02;;;;;;;-2.06;38.73;101742.78;5067161;28;20427;-70
2022/03/12 03:35:19;;;;;;;25.85;13.90;;;;;;;-2.06;38.88;101737.63;5066237;28;20588;-72
2022/03/12 03:37:46;;;;;;;23.58;12.55;;;;;;;-2.06;38.77;101737.63;5066686;28;20045;-71
2022/03/12 03:40:13;;;;;;;33.85;15.68;;;;;;;-2.08;38.71;101739.34;5067113;28;20047;-75
2022/03/12 03:42:40;;;;;;;29.15;14.98;;;;;;;-2.14;38.96;101742.78;5065690;28;20476;-71
2022/03/12 03:45:08;;;;;;;39.22;13.43;;;;;;;-2.18;39.42;101740.16;5065514;28;20080;-70
2022/03/12 03:47:35;;;;;;;35.53;14.52;;;;;;;-2.21;39.48;101730.66;5066514;28;20048;-73
2022/03/12 03:50:08;;;;;;;37.13;15.52;;;;;;;-2.22;39.56;101736.69;5066102;28;20464;-71
2022/03/12 03:52:35;;;;;;;28.25;13.60;;;;;;;-2.22;39.08;101736.69;5047987;28;20127;-72
2022/03/12 03:55:02;;;;;;;31.73;13.50;;;;;;;-2.22;39.25;101738.41;5043747;28;20076;-72
2022/03/12 03:57:29;;;;;;;29.15;13.68;;;;;;;-2.22;39.17;101736.69;5046365;28;20049;-71
2022/03/12 03:59:56;;;;;;;30.20;12.23;;;;;;;-2.23;39.16;101736.69;5045603;28;20159;-73
2022/03/12 04:02:23;;;;;;;34.40;14.13;;;;;;;-2.26;39.28;101734.94;5045414;28;20041;-72
2022/03/12 04:04:53;;;;;;;42.95;16.65;;;;;;;-2.27;39.35;101738.38;5046530;28;20128;-72
2022/03/12 04:07:21;;;;;;;35.65;18.35;;;;;;;-2.30;39.54;101733.22;5045509;28;20136;-71
2022/03/12 04:09:48;;;;;;;33.75;15.55;;;;;;;-2.31;39.45;101737.50;5045801;28;20530;-71
2022/03/12 04:12:15;;;;;;;32.63;16.58;;;;;;;-2.34;39.86;101731.44;5047335;28;20053;-72
2022/03/12 04:14:43;;;;;;;31.85;17.15;;;;;;;-2.37;40.07;101729.72;5047066;28;20547;-71
2022/03/12 04:17:10;;;;;;;36.45;16.15;;;;;;;-2.38;40.00;101728.00;5051162;28;20045;-71
2022/03/12 04:19:37;;;;;;;33.30;14.63;;;;;;;-2.39;40.22;101728.00;5057547;28;20593;-70
2022/03/12 04:22:06;;;;;;;42.15;17.70;;;;;;;-2.42;40.05;101722.81;5054352;28;20041;-71
2022/03/12 04:24:34;;;;;;;33.72;16.20;;;;;;;-2.43;40.33;101723.66;5050063;28;20049;-70
2022/03/12 04:27:02;;;;;;;37.30;17.58;;;;;;;-2.45;40.23;101722.78;5056141;28;20069;-72
2022/03/12 04:29:29;;;;;;;29.92;15.70;;;;;;;-2.46;40.18;101716.75;5052153;28;20048;-72
2022/03/12 04:31:56;;;;;;;32.05;15.15;;;;;;;-2.46;40.37;101721.06;5049688;28;20514;-71
2022/03/12 04:34:23;;;;;;;41.03;15.73;;;;;;;-2.49;40.00;101721.91;5047819;28;20606;-75
2022/03/12 04:36:50;;;;;;;30.48;13.40;;;;;;;-2.49;40.11;101724.50;5047366;28;20045;-69
2022/03/12 04:39:17;;;;;;;36.80;15.00;;;;;;;-2.53;40.07;101720.16;5046200;28;20476;-71
2022/03/12 04:41:46;;;;;;;29.80;13.68;;;;;;;-2.55;40.07;101725.34;5045850;28;20542;-71
2022/03/12 04:44:13;;;;;;;32.00;14.23;;;;;;;-2.63;40.35;101721.84;5045392;28;20045;-72
2022/03/12 04:46:40;;;;;;;23.90;13.27;;;;;;;-2.68;40.38;101720.97;5045149;28;20048;-70
2022/03/12 04:49:07;;;;;;;43.42;15.43;;;;;;;-2.72;40.13;101719.19;5044994;28;20168;-74
2022/03/12 04:51:34;;;;;;;35.05;16.45;;;;;;;-2.76;40.30;101714.88;5057968;28;20132;-71
2022/03/12 04:54:01;;;;;;;36.22;15.20;;;;;;;-2.77;40.25;101714.00;5067293;28;20127;-72
2022/03/12 04:56:28;;;;;;;34.80;14.50;;;;;;;-2.79;39.99;101712.25;5069819;28;20052;-68
2022/03/12 04:58:57;;;;;;;33.08;16.52;;;;;;;-2.79;40.20;101710.56;5067746;28;20079;-69
2022/03/12 05:01:24;;;;;;;39.05;21.20;;;;;;;-2.80;40.10;101707.94;5068459;28;20048;-71
2022/03/12 05:03:52;;;;;;;53.10;27.35;;;;;;;-2.85;40.35;101707.06;5073393;28;20127;-71
2022/03/12 05:06:21;;;;;;;42.90;22.95;;;;;;;-2.88;40.10;101705.31;5070743;28;20120;-69
2022/03/12 05:08:48;;;;;;;30.65;16.65;;;;;;;-2.89;40.35;101711.34;5071704;28;20071;-70
2022/03/12 05:11:15;;;;;;;27.17;14.35;;;;;;;-2.92;40.16;101719.94;5070680;28;20139;-71
2022/03/12 05:13:44;;;;;;;32.28;14.50;;;;;;;-2.93;40.01;101723.38;5073153;28;20119;-70
2022/03/12 05:16:13;;;;;;;38.72;16.23;;;;;;;-2.91;40.10;101721.66;5067509;28;20132;-69
2022/03/12 05:18:42;;;;;;;29.27;16.25;;;;;;;-2.94;40.21;101724.22;5072714;28;20090;-70
2022/03/12 05:21:09;;;;;;;32.42;14.68;;;;;;;-2.93;40.22;101727.69;5070991;28;20057;-72
2022/03/12 05:23:36;;;;;;;41.08;18.10;;;;;;;-2.91;40.15;101729.41;5067122;28;20045;-72
2022/03/12 05:26:03;;;;;;;39.38;14.90;;;;;;;-2.83;40.23;101736.38;5066732;28;20045;-69
2022/03/12 05:28:32;;;;;;;38.58;15.82;;;;;;;-2.81;40.23;101725.19;5066671;28;20133;-74
2022/03/12 05:31:04;;;;;;;36.72;14.23;;;;;;;-2.76;40.41;101727.78;5065679;28;20619;-71
2022/03/12 05:33:33;;;;;;;35.53;16.73;;;;;;;-2.66;40.52;101729.59;5066421;28;20123;-71
2022/03/12 05:36:00;;;;;;;39.90;17.92;;;;;;;-2.63;40.63;101723.56;5066189;28;20079;-72
2022/03/12 05:38:30;;;;;;;50.25;20.40;;;;;;;-2.58;41.03;101727.03;5063838;28;20790;-75
2022/03/12 05:40:57;;;;;;;38.47;19.50;;;;;;;-2.51;41.04;101727.06;5065585;28;20075;-70
2022/03/12 05:43:26;;;;;;;42.03;17.65;;;;;;;-2.45;41.12;101717.59;5065768;28;20055;-70
2022/03/12 05:45:56;;;;;;;38.20;18.15;;;;;;;-2.40;40.90;101705.56;5046866;28;20098;-69
2022/03/12 05:48:27;;;;;;;38.70;16.27;;;;;;;-2.34;40.87;101705.56;5064637;28;20045;-71
2022/03/12 05:50:58;;;;;;;37.05;17.38;;;;;;;-2.29;40.76;101701.28;5063671;28;20118;-79
2022/03/12 05:53:30;;;;;;;34.95;15.82;;;;;;;-2.24;40.76;101702.19;5070345;28;20054;-72
2022/03/12 05:55:57;;;;;;;47.28;18.05;;;;;;;-2.21;40.76;101702.19;5086013;28;20044;-70
2022/03/12 05:58:26;;;;;;;39.35;17.15;;;;;;;-2.15;40.74;101709.13;5087739;28;20050;-71
2022/03/12 06:00:55;;;;;;;42.88;19.42;;;;;;;-2.09;40.87;101706.53;5085138;28;20044;-75
2022/03/12 06:03:23;;;;;;;41.17;18.50;;;;;;;-2.02;40.78;101715.19;5074354;28;20172;-75
2022/03/12 06:05:56;;;;;;;42.50;18.80;;;;;;;-1.95;40.67;101711.75;5063919;28;20045;-70
2022/03/12 06:08:24;;;;;;;37.58;17.88;;;;;;;-1.87;41.02;101712.66;5064097;28;20118;-73
2022/03/12 06:10:55;;;;;;;31.30;17.02;;;;;;;-1.80;40.75;101713.50;5065944;28;20052;-73
2022/03/12 06:13:23;;;;;;;42.22;18.15;;;;;;;-1.72;40.83;101711.81;5064292;28;20049;-72
2022/03/12 06:15:57;;;;;;;37.60;15.65;;;;;;;-1.63;40.97;101721.34;5062269;28;20045;-71
2022/03/12 06:18:26;;;;;;;43.67;19.48;;;;;;;-1.49;40.77;101718.78;5064289;28;20127;-75
2022/03/12 06:20:53;;;;;;;35.00;16.23;;;;;;;-1.41;40.74;101714.44;5068480;28;20044;-74
2022/03/12 06:23:20;;;;;;;36.92;16.80;;;;;;;-1.30;40.66;101717.03;5082623;28;20084;-74
2022/03/12 06:25:48;;;;;;;38.63;19.05;;;;;;;-1.20;40.97;101719.63;5083204;28;20048;-71
2022/03/12 06:28:16;;;;;;;30.10;16.02;;;;;;;-1.10;40.84;101714.44;5065863;28;20047;-73
2022/03/12 06:30:43;;;;;;;35.00;15.30;;;;;;;-0.96;40.61;101721.31;5074527;28;20051;-72
2022/03/12 06:33:10;;;;;;;30.38;16.55;;;;;;;-0.82;40.70;101720.44;5073395;28;20313;-74
2022/03/12 06:35:37;;;;;;;30.02;15.85;;;;;;;-0.65;40.59;101725.59;5075550;28;20144;-74
2022/03/12 06:38:07;;;;;;;35.60;16.73;;;;;;;-0.50;40.69;101729.91;5067544;28;20087;-75
2022/03/12 06:40:34;;;;;;;34.78;16.40;;;;;;;-0.36;40.71;101733.31;5064166;28;20066;-73
2022/03/12 06:43:05;;;;;;;36.17;19.48;;;;;;;-0.21;40.57;101729.78;5064299;28;20049;-72
2022/03/12 06:45:33;;;;;;;31.33;15.85;;;;;;;-0.09;40.33;101726.25;5064273;28;20490;-74
2022/03/12 06:48:00;;;;;;;42.58;15.85;;;;;;;0.07;40.22;101733.09;5063543;28;20059;-75
2022/03/12 06:50:28;;;;;;;36.70;15.88;;;;;;;0.23;40.31;101730.44;5064786;28;20053;-71
2022/03/12 06:52:56;;;;;;;35.47;17.35;;;;;;;0.36;40.35;101729.47;5063474;28;20128;-76
2022/03/12 06:55:26;;;;;;;30.85;15.32;;;;;;;0.50;40.21;101732.84;5062600;28;20048;-75
2022/03/12 06:57:54;;;;;;;32.17;16.40;;;;;;;0.62;39.90;101729.31;5064047;28;20523;-74
2022/03/12 07:00:26;;;;;;;32.67;17.45;;;;;;;0.76;39.95;101729.22;5063722;28;20126;-76
2022/03/12 07:02:54;;;;;;;29.08;14.82;;;;;;;0.86;39.80;101720.44;5064630;28;20044;-74
2022/03/12 07:05:21;;;;;;;30.27;15.05;;;;;;;1.03;39.88;101722.91;5063369;28;20040;-75
2022/03/12 07:07:48;;;;;;;29.48;14.55;;;;;;;1.19;39.83;101722.72;5063363;28;20044;-74
2022/03/12 07:10:15;;;;;;;27.13;12.48;;;;;;;1.34;39.74;101718.22;5063056;28;20637;-75
2022/03/12 07:12:44;;;;;;;26.52;12.95;;;;;;;1.48;39.23;101714.63;5064602;28;20102;-75
2022/03/12 07:15:11;;;;;;;23.13;12.30;;;;;;;1.59;39.10;101706.69;5065720;28;20113;-77
2022/03/12 07:17:42;;;;;;;21.80;11.40;;;;;;;1.75;38.92;101707.34;5065142;28;20048;-76
2022/03/12 07:20:10;;;;;;;28.33;12.30;;;;;;;1.85;39.16;101698.53;5065878;28;20131;-75
2022/03/12 07:22:38;;;;;;;33.05;12.90;;;;;;;2.01;39.03;101701.81;5061938;28;20048;-73
2022/03/12 07:25:10;;;;;;;26.85;11.77;;;;;;;2.17;38.79;101707.69;5063253;28;20094;-80
2022/03/12 07:27:38;;;;;;;22.73;10.35;;;;;;;2.28;38.46;101708.38;5062963;28;20758;-75
2022/03/12 07:30:08;;;;;;;24.13;10.93;;;;;;;2.37;38.42;101700.41;5059270;28;20064;-74
2022/03/12 07:32:35;;;;;;;19.77;10.32;;;;;;;2.51;38.42;101704.56;5066346;28;20044;-74
2022/03/12 07:35:04;;;;;;;19.00;9.25;;;;;;;2.61;38.37;101695.69;5046297;28;20123;-74
2022/03/12 07:37:31;;;;;;;20.85;9.43;;;;;;;2.75;37.82;101696.31;5060991;28;20115;-74
2022/03/12 07:39:58;;;;;;;18.75;8.02;;;;;;;2.91;37.58;101688.25;5062266;28;20045;-77
2022/03/12 07:42:25;;;;;;;12.00;7.22;;;;;;;3.07;37.35;101692.31;5062705;28;20056;-73
2022/03/12 07:44:52;;;;;;;12.13;6.03;;;;;;;3.23;37.18;101691.13;5060740;28;20040;-76
2022/03/12 07:47:19;;;;;;;23.00;6.38;;;;;;;3.32;37.10;101697.94;5061441;28;20040;-72
2022/03/12 07:49:47;;;;;;;12.27;6.20;;;;;;;3.43;36.85;101700.34;5059135;28;20040;-74
2022/03/12 07:52:15;;;;;;;10.02;5.28;;;;;;;3.54;36.55;101700.13;5058928;28;20052;-70
2022/03/12 07:54:42;;;;;;;9.50;4.80;;;;;;;3.62;36.43;101688.63;5060144;28;20036;-71
2022/03/12 07:57:10;;;;;;;10.32;5.03;;;;;;;3.71;36.01;101694.53;5061672;28;20037;-77
2022/03/12 07:59:37;;;;;;;10.95;5.38;;;;;;;3.88;35.96;101689.81;5061437;28;20468;-75
2022/03/12 08:02:06;;;;;;;11.45;5.53;;;;;;;4.02;35.47;101698.22;4979750;28;20210;-76
2022/03/12 08:04:35;;;;;;;8.63;3.90;;;;;;;4.25;35.38;101704.72;4979411;28;20313;-75
2022/03/12 08:07:03;;;;;;;7.03;4.43;;;;;;;4.38;34.87;101711.38;4982213;28;20043;-80
2022/03/12 08:09:33;;;;;;;9.40;4.82;;;;;;;4.49;34.73;101705.03;4981552;28;20133;-74
2022/03/12 08:12:00;;;;;;;10.45;5.32;;;;;;;4.57;34.19;101722.28;4979573;28;20050;-72
2022/03/12 08:14:28;;;;;;;9.90;5.53;;;;;;;4.65;34.15;101723.84;4979182;28;20134;-74
2022/03/12 08:16:55;;;;;;;15.07;5.00;;;;;;;4.79;33.78;101722.59;4979594;28;20061;-70
2022/03/12 08:19:23;;;;;;;6.32;3.70;;;;;;;4.96;33.63;101721.31;4982213;28;20141;-78
2022/03/12 08:21:52;;;;;;;8.65;4.65;;;;;;;5.10;33.49;101711.34;5063130;28;20504;-76
2022/03/12 08:24:21;;;;;;;7.70;4.30;;;;;;;5.25;33.33;101711.84;5059691;28;20032;-74
2022/03/12 08:26:50;;;;;;;11.07;4.80;;;;;;;5.39;32.97;101716.72;5059915;28;20094;-73
2022/03/12 08:29:18;;;;;;;12.40;5.15;;;;;;;5.56;32.78;101719.69;5062344;28;20048;-76
2022/03/12 08:31:45;;;;;;;12.23;4.82;;;;;;;5.85;32.42;101712.75;5061912;28;20052;-76
2022/03/12 08:34:14;;;;;;;9.02;4.25;;;;;;;6.17;32.15;101718.84;5061303;28;20086;-76
2022/03/12 08:36:42;;;;;;;6.93;3.28;;;;;;;6.41;31.64;101719.84;5062696;28;20045;-76
2022/03/12 08:39:13;;;;;;;7.40;4.20;;;;;;;6.69;31.08;101712.78;5064352;28;20054;-75
2022/03/12 08:41:40;;;;;;;8.52;3.70;;;;;;;6.80;31.12;101703.72;5063703;28;20045;-78
2022/03/12 08:44:09;;;;;;;9.93;4.80;;;;;;;6.87;30.85;101702.59;5065955;28;20499;-74
2022/03/12 08:46:37;;;;;;;8.45;3.90;;;;;;;7.11;30.67;101693.00;5062523;28;20044;-77
2022/03/12 08:49:05;;;;;;;10.55;6.28;;;;;;;7.37;29.93;101692.09;5063831;28;20128;-72
2022/03/12 08:51:32;;;;;;;11.90;4.97;;;;;;;7.52;30.04;101687.19;5062176;28;20459;-69
2022/03/12 08:53:59;;;;;;;12.27;5.57;;;;;;;7.78;29.83;101684.44;5060078;28;20044;-74
2022/03/12 08:56:30;;;;;;;10.18;5.80;;;;;;;7.74;29.11;101680.22;5067890;28;20075;-78
2022/03/12 08:58:57;;;;;;;13.90;7.03;;;;;;;7.70;28.92;101672.50;5070308;28;20083;-77
2022/03/12 09:01:26;;;;;;;10.60;5.57;;;;;;;7.87;29.04;101670.09;5055462;28;20045;-76
2022/03/12 09:03:54;;;;;;;12.38;6.50;;;;;;;8.02;28.72;101668.63;5069541;28;20128;-75
2022/03/12 09:06:22;;;;;;;12.00;5.45;;;;;;;8.32;28.61;101665.69;5072756;28;20045;-82
2022/03/12 09:08:51;;;;;;;9.57;5.10;;;;;;;8.65;28.29;101667.91;5075308;28;20052;-78
2022/03/12 09:11:19;;;;;;;14.43;5.95;;;;;;;8.83;28.09;101664.50;5059219;28;20044;-78
2022/03/12 09:13:47;;;;;;;11.45;5.22;;;;;;;8.95;27.91;101665.75;5071785;28;20762;-80
2022/03/12 09:16:14;;;;;;;11.55;5.50;;;;;;;9.05;27.78;101663.56;5068156;28;20072;-77
2022/03/12 09:18:44;;;;;;;9.85;4.65;;;;;;;9.21;27.49;101664.59;5065232;28;20098;-76
2022/03/12 09:21:14;;;;;;;10.25;5.43;;;;;;;9.27;27.27;101651.13;5063520;28;20053;-78
2022/03/12 09:23:44;;;;;;;10.38;5.82;;;;;;;9.50;27.22;101659.81;5063222;28;20049;-76
2022/03/12 09:26:12;;;;;;;11.93;5.30;;;;;;;9.73;27.00;101656.97;5063139;28;20123;-75
2022/03/12 09:28:39;;;;;;;11.18;5.57;;;;;;;9.99;26.74;101654.88;5062711;28;20059;-79
2022/03/12 09:31:06;;;;;;;10.13;5.13;;;;;;;10.20;26.44;101649.50;5060782;28;20581;-76
2022/03/12 09:33:34;;;;;;;9.27;4.97;;;;;;;10.15;26.38;101662.91;5062202;28;20046;-77
2022/03/12 09:36:03;;;;;;;9.10;4.68;;;;;;;9.95;26.53;101658.59;5061591;28;20060;-75
2022/03/12 09:38:30;;;;;;;9.15;4.45;;;;;;;10.02;26.37;101659.16;5059694;28;20078;-75
2022/03/12 09:41:06;;;;;;;11.10;5.30;;;;;;;10.17;26.11;101647.84;5061259;28;20086;-76
2022/03/12 09:43:34;;;;;;;9.82;5.10;;;;;;;10.24;25.72;101645.78;5060022;28;20700;-75
2022/03/12 09:46:01;;;;;;;13.32;5.75;;;;;;;10.30;25.55;101641.06;5060333;28;20048;-76
2022/03/12 09:48:32;;;;;;;7.90;4.68;;;;;;;10.21;25.46;101643.28;5063140;28;20059;-76
2022/03/12 09:50:59;;;;;;;11.52;5.35;;;;;;;10.12;25.19;101637.53;5062523;28;20072;-72
2022/03/12 09:53:29;;;;;;;8.00;5.30;;;;;;;10.21;25.08;101630.06;5060318;28;20049;-76
2022/03/12 09:55:57;;;;;;;7.05;3.92;;;;;;;10.17;24.72;101632.00;5063922;28;21026;-78
2022/03/12 09:58:24;;;;;;;7.50;4.22;;;;;;;10.21;24.80;101627.44;5059587;28;20140;-72
2022/03/12 10:00:51;;;;;;;11.27;5.25;;;;;;;10.31;24.94;101626.09;5059596;28;20055;-75
2022/03/12 10:03:18;;;;;;;8.02;3.75;;;;;;;10.27;24.63;101614.81;5063790;28;20645;-75
2022/03/12 10:05:46;;;;;;;7.03;3.35;;;;;;;10.19;24.27;101616.97;5064807;28;20127;-72
2022/03/12 10:08:15;;;;;;;10.88;3.63;;;;;;;10.21;24.28;101604.56;5063690;28;20059;-73
2022/03/12 10:10:44;;;;;;;5.32;3.95;;;;;;;10.30;24.35;101605.88;5066989;28;20045;-71
2022/03/12 10:13:11;;;;;;;8.38;3.40;;;;;;;10.41;24.19;101608.88;5063524;28;20412;-74
2022/03/12 10:15:39;;;;;;;7.03;3.42;;;;;;;10.39;24.12;101610.75;5063945;28;20102;-73
2022/03/12 10:18:06;;;;;;;10.13;5.13;;;;;;;10.25;23.89;101616.66;5065790;28;20048;-72
2022/03/12 10:20:33;;;;;;;9.00;4.25;;;;;;;10.10;23.70;101609.47;5064322;28;20127;-71
2022/03/12 10:23:00;;;;;;;9.48;4.50;;;;;;;10.07;23.78;101609.66;5063494;28;20602;-72
2022/03/12 10:25:28;;;;;;;9.77;4.65;;;;;;;10.22;23.66;101613.31;5063249;28;20083;-74
2022/03/12 10:27:58;;;;;;;11.40;5.40;;;;;;;10.12;23.84;101600.56;5061564;28;20054;-74
2022/03/12 10:30:25;;;;;;;10.63;4.85;;;;;;;10.12;24.09;101603.22;5063600;28;20044;-73
2022/03/12 10:32:52;;;;;;;11.70;4.65;;;;;;;10.03;23.79;101595.75;5063799;28;20084;-76
2022/03/12 10:35:22;;;;;;;8.65;6.13;;;;;;;10.02;23.63;101604.59;5064057;28;20429;-73
2022/03/12 10:37:54;;;;;;;8.25;4.40;;;;;;;10.21;23.25;101603.69;5064998;28;20147;-73
2022/03/12 10:40:23;;;;;;;8.35;4.15;;;;;;;10.22;23.21;101600.13;5065230;28;20143;-72
2022/03/12 10:42:53;;;;;;;12.20;4.57;;;;;;;10.19;23.31;101594.97;5061752;28;20147;-74
2022/03/12 10:45:23;;;;;;;13.40;5.50;;;;;;;10.10;23.10;101591.00;5065585;28;20082;-74
2022/03/12 10:47:53;;;;;;;7.38;4.28;;;;;;;9.86;23.04;101585.16;5063750;28;20079;-73
2022/03/12 10:50:25;;;;;;;10.82;5.25;;;;;;;9.73;23.44;101585.72;5062255;28;20105;-75
2022/03/12 10:52:55;;;;;;;9.32;4.65;;;;;;;9.94;23.07;101578.56;5064190;28;20428;-75
2022/03/12 10:55:26;;;;;;;11.27;4.25;;;;;;;10.23;22.99;101572.81;5061901;28;20131;-72
2022/03/12 10:58:07;;;;;;;8.65;4.45;;;;;;;10.45;22.69;101565.50;5063013;28;20041;-72
2022/03/12 11:00:38;;;;;;;7.75;5.25;;;;;;;10.42;22.74;101560.38;5063372;28;20075;-75
2022/03/12 11:03:08;;;;;;;8.50;5.28;;;;;;;10.43;22.70;101554.19;5062114;28;20055;-77
2022/03/12 11:05:37;;;;;;;9.35;4.88;;;;;;;10.63;22.73;101549.66;5064642;28;20048;-76
2022/03/12 11:08:15;;;;;;;10.20;5.72;;;;;;;10.87;22.50;101547.50;5063623;28;20060;-75
2022/03/12 11:10:53;;;;;;;8.63;5.45;;;;;;;11.00;21.97;101543.28;5058576;28;20593;-74
2022/03/12 11:13:49;;;;;;;16.02;5.38;;;;;;;10.93;22.22;101541.91;5061580;28;20051;-74
2022/03/12 11:16:24;;;;;;;8.68;4.78;;;;;;;10.81;21.89;101524.91;5046327;28;20075;-77
2022/03/12 11:19:10;;;;;;;12.82;6.38;;;;;;;10.61;21.99;101525.97;5063569;28;20072;-75
2022/03/12 11:21:40;;;;;;;10.40;4.82;;;;;;;10.70;21.95;101524.63;5061664;28;20044;-73